sensor_id;sensor_type;location;lat;lon;timestamp;pressure;altitude;pressure_sealevel;temperature;humidity
64683;BME280;51107;47.652;19.016;2022-12-07T00:01:45;99840.31;;;2.50;100.00
64683;BME280;51107;47.652;19.016;2022-12-07T00:04:16;99833.50;;;2.49;100.00
64683;BME280;51107;47.652;19.016;2022-12-07T00:06:46;99845.81;;;2.44;100.00
64683;BME280;51107;47.652;19.016;2022-12-07T00:09:18;99834.81;;;2.42;100.00
64683;BME280;51107;47.652;19.016;2022-12-07T00:11:51;99838.41;;;2.39;100.00
64683;BME280;51107;47.652;19.016;2022-12-07T00:14:20;99825.53;;;2.39;100.00
64683;BME280;51107;47.652;19.016;2022-12-07T00:16:50;99836.66;;;2.40;100.00
64683;BME280;51107;47.652;19.016;2022-12-07T00:19:19;99825.44;;;2.41;100.00
64683;BME280;51107;47.652;19.016;2022-12-07T00:21:47;99817.72;;;2.41;100.00
64683;BME280;51107;47.652;19.016;2022-12-07T00:24:16;99817.94;;;2.37;100.00
64683;BME280;51107;47.652;19.016;2022-12-07T00:26:44;99810.87;;;2.41;100.00
64683;BME280;51107;47.652;19.016;2022-12-07T00:29:17;99816.19;;;2.38;100.00
64683;BME280;51107;47.652;19.016;2022-12-07T00:31:50;99808.97;;;2.30;100.00
64683;BME280;51107;47.652;19.016;2022-12-07T00:34:20;99808.97;;;2.30;100.00
64683;BME280;51107;47.652;19.016;2022-12-07T00:36:49;99802.06;;;2.31;100.00
64683;BME280;51107;47.652;19.016;2022-12-07T00:39:18;99803.09;;;2.28;100.00
64683;BME280;51107;47.652;19.016;2022-12-07T00:41:46;99809.44;;;2.23;100.00
64683;BME280;51107;47.652;19.016;2022-12-07T00:44:14;99805.59;;;2.15;100.00
64683;BME280;51107;47.652;19.016;2022-12-07T00:46:43;99810.19;;;2.10;100.00
64683;BME280;51107;47.652;19.016;2022-12-07T00:49:13;99815.44;;;2.09;100.00
64683;BME280;51107;47.652;19.016;2022-12-07T00:51:41;99812.56;;;2.13;100.00
64683;BME280;51107;47.652;19.016;2022-12-07T00:54:10;99803.03;;;2.15;100.00
64683;BME280;51107;47.652;19.016;2022-12-07T00:56:38;99809.34;;;2.24;100.00
64683;BME280;51107;47.652;19.016;2022-12-07T00:59:06;99818.50;;;2.28;100.00
64683;BME280;51107;47.652;19.016;2022-12-07T01:01:36;99804.16;;;2.38;100.00
64683;BME280;51107;47.652;19.016;2022-12-07T01:04:05;99809.69;;;2.32;100.00
64683;BME280;51107;47.652;19.016;2022-12-07T01:06:33;99814.56;;;2.37;100.00
64683;BME280;51107;47.652;19.016;2022-12-07T01:09:02;99806.41;;;2.30;100.00
64683;BME280;51107;47.652;19.016;2022-12-07T01:11:32;99818.50;;;2.28;100.00
64683;BME280;51107;47.652;19.016;2022-12-07T01:14:00;99817.59;;;2.29;100.00
64683;BME280;51107;47.652;19.016;2022-12-07T01:16:30;99795.13;;;2.18;100.00
64683;BME280;51107;47.652;19.016;2022-12-07T01:18:59;99801.47;;;2.13;100.00
64683;BME280;51107;47.652;19.016;2022-12-07T01:21:30;99788.63;;;2.13;100.00
64683;BME280;51107;47.652;19.016;2022-12-07T01:24:05;99795.87;;;2.20;100.00
64683;BME280;51107;47.652;19.016;2022-12-07T01:26:33;99796.88;;;2.18;100.00
64683;BME280;51107;47.652;19.016;2022-12-07T01:29:02;99799.22;;;2.08;100.00
64683;BME280;51107;47.652;19.016;2022-12-07T01:31:30;99789.19;;;2.03;100.00
64683;BME280;51107;47.652;19.016;2022-12-07T01:33:59;99794.09;;;1.94;100.00
64683;BME280;51107;47.652;19.016;2022-12-07T01:36:33;99780.97;;;1.84;100.00
64683;BME280;51107;47.652;19.016;2022-12-07T01:39:05;99797.59;;;1.78;100.00
64683;BME280;51107;47.652;19.016;2022-12-07T01:41:37;99783.84;;;1.65;100.00
64683;BME280;51107;47.652;19.016;2022-12-07T01:44:23;99790.09;;;1.75;100.00
64683;BME280;51107;47.652;19.016;2022-12-07T01:46:54;99794.03;;;1.81;100.00
64683;BME280;51107;47.652;19.016;2022-12-07T01:55:07;99798.91;;;2.13;100.00
64683;BME280;51107;47.652;19.016;2022-12-07T01:57:40;99781.81;;;2.26;100.00
64683;BME280;51107;47.652;19.016;2022-12-07T02:00:10;99792.81;;;2.28;100.00
64683;BME280;51107;47.652;19.016;2022-12-07T02:02:45;99780.84;;;2.27;100.00
64683;BME280;51107;47.652;19.016;2022-12-07T02:05:16;99787.84;;;2.25;100.00
64683;BME280;51107;47.652;19.016;2022-12-07T02:07:46;99781.94;;;2.37;100.00
64683;BME280;51107;47.652;19.016;2022-12-07T02:12:57;99789.25;;;2.44;100.00
64683;BME280;51107;47.652;19.016;2022-12-07T02:15:38;99786.59;;;2.45;100.00
64683;BME280;51107;47.652;19.016;2022-12-07T02:18:17;99780.09;;;2.40;100.00
64683;BME280;51107;47.652;19.016;2022-12-07T02:23:40;99790.00;;;2.46;100.00
64683;BME280;51107;47.652;19.016;2022-12-07T02:31:37;99777.38;;;2.68;100.00
64683;BME280;51107;47.652;19.016;2022-12-07T02:34:16;99767.41;;;2.77;100.00
64683;BME280;51107;47.652;19.016;2022-12-07T02:36:54;99767.72;;;2.72;100.00
64683;BME280;51107;47.652;19.016;2022-12-07T02:39:34;99765.69;;;2.77;100.00
64683;BME280;51107;47.652;19.016;2022-12-07T02:42:20;99772.66;;;2.75;100.00
64683;BME280;51107;47.652;19.016;2022-12-07T02:44:51;99773.78;;;2.71;100.00
64683;BME280;51107;47.652;19.016;2022-12-07T02:47:21;99766.50;;;2.78;100.00
64683;BME280;51107;47.652;19.016;2022-12-07T02:49:52;99764.75;;;2.78;100.00
64683;BME280;51107;47.652;19.016;2022-12-07T02:52:20;99758.25;;;2.72;100.00
64683;BME280;51107;47.652;19.016;2022-12-07T02:54:48;99764.66;;;2.80;100.00
64683;BME280;51107;47.652;19.016;2022-12-07T02:57:46;99766.19;;;2.82;100.00
64683;BME280;51107;47.652;19.016;2022-12-07T03:00:20;99768.69;;;2.84;100.00
64683;BME280;51107;47.652;19.016;2022-12-07T03:03:00;99773.94;;;2.95;100.00
64683;BME280;51107;47.652;19.016;2022-12-07T03:11:03;99766.13;;;2.97;100.00
64683;BME280;51107;47.652;19.016;2022-12-07T03:16:33;99763.94;;;2.91;100.00
64683;BME280;51107;47.652;19.016;2022-12-07T03:19:15;99759.09;;;2.86;100.00
64683;BME280;51107;47.652;19.016;2022-12-07T03:21:49;99765.59;;;2.79;100.00
64683;BME280;51107;47.652;19.016;2022-12-07T03:24:23;99770.72;;;2.79;100.00
64683;BME280;51107;47.652;19.016;2022-12-07T03:26:56;99764.41;;;2.70;100.00
64683;BME280;51107;47.652;19.016;2022-12-07T03:29:33;99772.06;;;2.71;100.00
64683;BME280;51107;47.652;19.016;2022-12-07T03:32:14;99773.69;;;2.72;100.00
64683;BME280;51107;47.652;19.016;2022-12-07T03:35:00;99767.84;;;2.70;100.00
64683;BME280;51107;47.652;19.016;2022-12-07T03:37:36;99773.09;;;2.69;100.00
64683;BME280;51107;47.652;19.016;2022-12-07T03:40:22;99773.91;;;2.69;100.00
64683;BME280;51107;47.652;19.016;2022-12-07T03:42:51;99775.56;;;2.70;100.00
64683;BME280;51107;47.652;19.016;2022-12-07T03:45:24;99777.59;;;2.65;100.00
64683;BME280;51107;47.652;19.016;2022-12-07T03:48:08;99770.34;;;2.45;100.00
64683;BME280;51107;47.652;19.016;2022-12-07T03:50:49;99778.97;;;2.44;100.00
64683;BME280;51107;47.652;19.016;2022-12-07T03:53:26;99785.97;;;2.42;100.00
64683;BME280;51107;47.652;19.016;2022-12-07T03:55:58;99769.19;;;2.36;100.00
64683;BME280;51107;47.652;19.016;2022-12-07T03:58:28;99773.50;;;2.35;100.00
64683;BME280;51107;47.652;19.016;2022-12-07T04:00:57;99764.25;;;2.33;100.00
64683;BME280;51107;47.652;19.016;2022-12-07T04:03:26;99774.59;;;2.31;100.00
64683;BME280;51107;47.652;19.016;2022-12-07T04:05:54;99774.59;;;2.31;100.00
64683;BME280;51107;47.652;19.016;2022-12-07T04:08:23;99771.22;;;2.31;100.00
64683;BME280;51107;47.652;19.016;2022-12-07T04:10:51;99779.03;;;2.29;100.00
64683;BME280;51107;47.652;19.016;2022-12-07T04:13:19;99781.59;;;2.29;100.00
64683;BME280;51107;47.652;19.016;2022-12-07T04:15:47;99777.19;;;2.31;100.00
64683;BME280;51107;47.652;19.016;2022-12-07T04:18:16;99773.56;;;2.21;100.00
64683;BME280;51107;47.652;19.016;2022-12-07T04:20:46;99766.38;;;2.26;100.00
64683;BME280;51107;47.652;19.016;2022-12-07T04:23:14;99774.47;;;2.20;100.00
64683;BME280;51107;47.652;19.016;2022-12-07T04:25:42;99775.38;;;2.19;100.00
64683;BME280;51107;47.652;19.016;2022-12-07T04:28:11;99770.34;;;2.17;100.00
64683;BME280;51107;47.652;19.016;2022-12-07T04:30:39;99780.34;;;2.22;100.00
64683;BME280;51107;47.652;19.016;2022-12-07T04:33:08;99763.97;;;2.23;100.00
64683;BME280;51107;47.652;19.016;2022-12-07T04:35:37;99770.16;;;2.20;100.00
64683;BME280;51107;47.652;19.016;2022-12-07T04:38:05;99762.00;;;2.14;100.00
64683;BME280;51107;47.652;19.016;2022-12-07T04:40:34;99764.94;;;2.22;100.00
64683;BME280;51107;47.652;19.016;2022-12-07T04:43:03;99768.78;;;2.15;100.00
64683;BME280;51107;47.652;19.016;2022-12-07T04:45:32;99768.72;;;2.16;100.00
64683;BME280;51107;47.652;19.016;2022-12-07T04:48:01;99758.50;;;2.15;100.00
64683;BME280;51107;47.652;19.016;2022-12-07T04:50:29;99758.69;;;2.12;100.00
64683;BME280;51107;47.652;19.016;2022-12-07T04:52:57;99758.00;;;2.10;100.00
64683;BME280;51107;47.652;19.016;2022-12-07T04:55:26;99752.66;;;2.13;100.00
64683;BME280;51107;47.652;19.016;2022-12-07T04:57:54;99770.25;;;2.19;100.00
64683;BME280;51107;47.652;19.016;2022-12-07T05:00:22;99757.50;;;2.17;100.00
64683;BME280;51107;47.652;19.016;2022-12-07T05:02:51;99744.03;;;2.14;100.00
64683;BME280;51107;47.652;19.016;2022-12-07T05:05:19;99754.81;;;2.19;100.00
64683;BME280;51107;47.652;19.016;2022-12-07T05:07:47;99749.69;;;2.19;100.00
64683;BME280;51107;47.652;19.016;2022-12-07T05:10:16;99758.34;;;2.18;100.00
64683;BME280;51107;47.652;19.016;2022-12-07T05:12:44;99753.00;;;2.21;100.00
64683;BME280;51107;47.652;19.016;2022-12-07T05:15:15;99743.09;;;2.15;100.00
64683;BME280;51107;47.652;19.016;2022-12-07T05:17:43;99753.38;;;2.15;100.00
64683;BME280;51107;47.652;19.016;2022-12-07T05:20:15;99749.69;;;2.19;100.00
64683;BME280;51107;47.652;19.016;2022-12-07T05:22:43;99757.31;;;2.20;100.00
64683;BME280;51107;47.652;19.016;2022-12-07T05:25:12;99762.72;;;2.16;100.00
64683;BME280;51107;47.652;19.016;2022-12-07T05:27:40;99751.09;;;2.10;100.00
64683;BME280;51107;47.652;19.016;2022-12-07T05:30:09;99761.47;;;2.09;100.00
64683;BME280;51107;47.652;19.016;2022-12-07T05:32:37;99754.12;;;2.02;100.00
64683;BME280;51107;47.652;19.016;2022-12-07T05:35:06;99750.94;;;1.99;100.00
64683;BME280;51107;47.652;19.016;2022-12-07T05:37:34;99751.25;;;1.94;100.00
64683;BME280;51107;47.652;19.016;2022-12-07T05:40:04;99743.16;;;2.00;100.00
64683;BME280;51107;47.652;19.016;2022-12-07T05:42:32;99754.88;;;2.04;100.00
64683;BME280;51107;47.652;19.016;2022-12-07T05:45:01;99746.06;;;2.09;100.00
64683;BME280;51107;47.652;19.016;2022-12-07T05:47:29;99751.84;;;2.12;100.00
64683;BME280;51107;47.652;19.016;2022-12-07T05:49:57;99755.88;;;2.16;100.00
64683;BME280;51107;47.652;19.016;2022-12-07T05:52:26;99757.37;;;2.19;100.00
64683;BME280;51107;47.652;19.016;2022-12-07T05:54:54;99753.91;;;2.20;100.00
64683;BME280;51107;47.652;19.016;2022-12-07T05:57:22;99758.84;;;2.23;100.00
64683;BME280;51107;47.652;19.016;2022-12-07T05:59:51;99758.13;;;2.21;100.00
64683;BME280;51107;47.652;19.016;2022-12-07T06:02:19;99761.50;;;2.21;100.00
64683;BME280;51107;47.652;19.016;2022-12-07T06:04:47;99759.59;;;2.25;100.00
64683;BME280;51107;47.652;19.016;2022-12-07T06:07:16;99762.34;;;2.22;100.00
64683;BME280;51107;47.652;19.016;2022-12-07T06:09:46;99759.78;;;2.22;100.00
64683;BME280;51107;47.652;19.016;2022-12-07T06:12:15;99763.72;;;2.28;100.00
64683;BME280;51107;47.652;19.016;2022-12-07T06:15:02;99763.31;;;2.34;100.00
64683;BME280;51107;47.652;19.016;2022-12-07T06:17:30;99762.59;;;2.32;100.00
64683;BME280;51107;47.652;19.016;2022-12-07T06:19:58;99763.94;;;2.37;100.00
64683;BME280;51107;47.652;19.016;2022-12-07T06:22:27;99762.94;;;2.40;100.00
64683;BME280;51107;47.652;19.016;2022-12-07T06:24:55;99761.06;;;2.42;100.00
64683;BME280;51107;47.652;19.016;2022-12-07T06:27:24;99760.69;;;2.48;100.00
64683;BME280;51107;47.652;19.016;2022-12-07T06:29:52;99764.06;;;2.49;100.00
64683;BME280;51107;47.652;19.016;2022-12-07T06:32:20;99777.03;;;2.47;100.00
64683;BME280;51107;47.652;19.016;2022-12-07T06:34:48;99773.53;;;2.48;100.00
64683;BME280;51107;47.652;19.016;2022-12-07T06:37:16;99775.19;;;2.49;100.00
64683;BME280;51107;47.652;19.016;2022-12-07T06:39:45;99773.34;;;2.51;100.00
64683;BME280;51107;47.652;19.016;2022-12-07T06:42:13;99770.22;;;2.46;100.00
64683;BME280;51107;47.652;19.016;2022-12-07T06:44:41;99776.00;;;2.50;100.00
64683;BME280;51107;47.652;19.016;2022-12-07T06:47:10;99772.81;;;2.46;100.00
64683;BME280;51107;47.652;19.016;2022-12-07T06:49:59;99785.28;;;2.52;100.00
64683;BME280;51107;47.652;19.016;2022-12-07T06:52:28;99774.91;;;2.54;100.00
64683;BME280;51107;47.652;19.016;2022-12-07T06:54:56;99773.88;;;2.57;100.00
64683;BME280;51107;47.652;19.016;2022-12-07T06:57:25;99772.31;;;2.54;100.00
64683;BME280;51107;47.652;19.016;2022-12-07T06:59:54;99777.16;;;2.59;100.00
64683;BME280;51107;47.652;19.016;2022-12-07T07:02:22;99775.13;;;2.64;100.00
64683;BME280;51107;47.652;19.016;2022-12-07T11:58:51;99717.28;;;6.14;78.50
64683;BME280;51107;47.652;19.016;2022-12-07T12:02:16;99706.88;;;5.92;78.41
64683;BME280;51107;47.652;19.016;2022-12-07T12:05:25;99701.84;;;5.79;80.83
64683;BME280;51107;47.652;19.016;2022-12-07T12:08:31;99693.31;;;5.68;80.43
64683;BME280;51107;47.652;19.016;2022-12-07T12:15:16;99688.63;;;5.50;82.23
64683;BME280;51107;47.652;19.016;2022-12-07T12:21:48;99687.59;;;5.41;82.47
64683;BME280;51107;47.652;19.016;2022-12-07T12:24:49;99684.78;;;5.44;81.65
64683;BME280;51107;47.652;19.016;2022-12-07T12:28:02;99683.94;;;5.55;81.39
64683;BME280;51107;47.652;19.016;2022-12-07T12:40:41;99677.25;;;5.97;80.08
64683;BME280;51107;47.652;19.016;2022-12-07T12:43:45;99673.59;;;5.99;80.28
64683;BME280;51107;47.652;19.016;2022-12-07T12:47:04;99667.63;;;5.87;80.85
64683;BME280;51107;47.652;19.016;2022-12-07T12:53:36;99678.59;;;5.79;82.75
64683;BME280;51107;47.652;19.016;2022-12-07T12:56:39;99672.00;;;5.87;83.69
64683;BME280;51107;47.652;19.016;2022-12-07T13:02:53;99690.09;;;5.75;81.47
64683;BME280;51107;47.652;19.016;2022-12-07T13:06:19;99684.59;;;5.69;82.42
64683;BME280;51107;47.652;19.016;2022-12-07T13:09:28;99686.84;;;5.73;84.57
64683;BME280;51107;47.652;19.016;2022-12-07T13:12:32;99683.78;;;5.68;85.69
64683;BME280;51107;47.652;19.016;2022-12-07T13:15:46;99690.94;;;5.65;86.58
64683;BME280;51107;47.652;19.016;2022-12-07T13:18:55;99688.72;;;5.71;77.43
64683;BME280;51107;47.652;19.016;2022-12-07T13:21:47;99688.28;;;5.66;75.21
64683;BME280;51107;47.652;19.016;2022-12-07T13:24:55;99683.47;;;5.50;75.94
64683;BME280;51107;47.652;19.016;2022-12-07T13:31:34;99685.34;;;5.37;77.62
64683;BME280;51107;47.652;19.016;2022-12-07T13:34:46;99694.78;;;5.26;77.52
64683;BME280;51107;47.652;19.016;2022-12-07T13:37:42;99698.66;;;5.32;77.79
64683;BME280;51107;47.652;19.016;2022-12-07T13:41:03;99703.09;;;5.30;80.13
64683;BME280;51107;47.652;19.016;2022-12-07T13:47:43;99713.09;;;5.23;78.44
64683;BME280;51107;47.652;19.016;2022-12-07T13:50:35;99717.19;;;5.03;81.91
64683;BME280;51107;47.652;19.016;2022-12-07T13:53:46;99717.63;;;4.97;80.37
64683;BME280;51107;47.652;19.016;2022-12-07T13:56:38;99712.34;;;4.87;80.54
64683;BME280;51107;47.652;19.016;2022-12-07T13:59:42;99719.97;;;4.78;81.32
64683;BME280;51107;47.652;19.016;2022-12-07T14:09:22;99711.16;;;4.69;83.00
64683;BME280;51107;47.652;19.016;2022-12-07T14:12:28;99723.12;;;4.70;85.28
64683;BME280;51107;47.652;19.016;2022-12-07T14:15:34;99723.53;;;4.52;87.54
64683;BME280;51107;47.652;19.016;2022-12-07T14:18:39;99716.44;;;4.67;81.52
64683;BME280;51107;47.652;19.016;2022-12-07T14:22:06;99730.50;;;4.63;82.38
64683;BME280;51107;47.652;19.016;2022-12-07T14:25:27;99727.28;;;4.48;83.78
64683;BME280;51107;47.652;19.016;2022-12-07T14:28:35;99726.13;;;4.52;82.29
64683;BME280;51107;47.652;19.016;2022-12-07T14:31:41;99722.62;;;4.53;82.76
64683;BME280;51107;47.652;19.016;2022-12-07T14:37:53;99715.91;;;4.39;83.47
64683;BME280;51107;47.652;19.016;2022-12-07T14:41:13;99718.91;;;4.33;84.37
64683;BME280;51107;47.652;19.016;2022-12-07T14:44:27;99723.69;;;4.27;84.29
64683;BME280;51107;47.652;19.016;2022-12-07T14:47:34;99725.59;;;4.12;84.39
64683;BME280;51107;47.652;19.016;2022-12-07T14:50:35;99733.34;;;4.12;83.88
64683;BME280;51107;47.652;19.016;2022-12-07T14:53:48;99724.41;;;4.04;84.36
64683;BME280;51107;47.652;19.016;2022-12-07T14:56:54;99727.50;;;4.10;84.01
64683;BME280;51107;47.652;19.016;2022-12-07T15:03:32;99746.97;;;3.77;86.57
64683;BME280;51107;47.652;19.016;2022-12-07T15:06:55;99746.38;;;3.73;85.93
64683;BME280;51107;47.652;19.016;2022-12-07T15:09:49;99738.69;;;3.60;87.72
64683;BME280;51107;47.652;19.016;2022-12-07T15:12:53;99741.19;;;3.49;89.61
64683;BME280;51107;47.652;19.016;2022-12-07T15:15:59;99735.44;;;3.32;90.69
64683;BME280;51107;47.652;19.016;2022-12-07T15:18:54;99746.78;;;3.17;90.89
64683;BME280;51107;47.652;19.016;2022-12-07T15:22:01;99746.34;;;3.23;90.03
64683;BME280;51107;47.652;19.016;2022-12-07T15:24:57;99751.63;;;3.09;90.85
64683;BME280;51107;47.652;19.016;2022-12-07T15:28:02;99750.03;;;2.93;93.84
64683;BME280;51107;47.652;19.016;2022-12-07T15:30:54;99755.00;;;2.96;92.05
64683;BME280;51107;47.652;19.016;2022-12-07T15:34:02;99754.59;;;2.89;92.85
64683;BME280;51107;47.652;19.016;2022-12-07T15:36:55;99755.72;;;2.85;93.00
64683;BME280;51107;47.652;19.016;2022-12-07T15:40:11;99763.00;;;2.79;93.55
64683;BME280;51107;47.652;19.016;2022-12-07T15:43:04;99765.28;;;2.83;92.61
64683;BME280;51107;47.652;19.016;2022-12-07T15:46:07;99773.78;;;2.71;93.46
64683;BME280;51107;47.652;19.016;2022-12-07T15:48:59;99775.66;;;2.69;94.40
64683;BME280;51107;47.652;19.016;2022-12-07T15:51:53;99760.81;;;2.60;95.28
64683;BME280;51107;47.652;19.016;2022-12-07T15:54:57;99760.19;;;2.56;97.08
64683;BME280;51107;47.652;19.016;2022-12-07T15:57:48;99760.47;;;2.51;96.32
64683;BME280;51107;47.652;19.016;2022-12-07T16:00:52;99752.28;;;2.59;95.82
64683;BME280;51107;47.652;19.016;2022-12-07T16:04:00;99759.91;;;2.61;96.18
64683;BME280;51107;47.652;19.016;2022-12-07T16:06:53;99767.06;;;2.55;95.41
64683;BME280;51107;47.652;19.016;2022-12-07T16:10:01;99766.50;;;2.37;97.82
64683;BME280;51107;47.652;19.016;2022-12-07T16:12:52;99769.78;;;2.40;97.48
64683;BME280;51107;47.652;19.016;2022-12-07T16:15:56;99772.13;;;2.30;98.34
64683;BME280;51107;47.652;19.016;2022-12-07T16:18:50;99766.75;;;2.20;99.01
64683;BME280;51107;47.652;19.016;2022-12-07T16:22:01;99770.25;;;2.19;99.50
64683;BME280;51107;47.652;19.016;2022-12-07T16:25:05;99769.56;;;2.02;100.00
64683;BME280;51107;47.652;19.016;2022-12-07T16:28:13;99774.19;;;1.97;100.00
64683;BME280;51107;47.652;19.016;2022-12-07T16:31:24;99774.63;;;1.90;100.00
64683;BME280;51107;47.652;19.016;2022-12-07T16:34:33;99778.50;;;1.82;100.00
64683;BME280;51107;47.652;19.016;2022-12-07T16:37:27;99776.03;;;1.81;100.00
64683;BME280;51107;47.652;19.016;2022-12-07T16:40:30;99773.66;;;1.78;100.00
64683;BME280;51107;47.652;19.016;2022-12-07T16:43:20;99771.16;;;1.76;100.00
64683;BME280;51107;47.652;19.016;2022-12-07T16:46:24;99772.09;;;1.75;100.00
64683;BME280;51107;47.652;19.016;2022-12-07T16:49:16;99776.50;;;1.73;100.00
64683;BME280;51107;47.652;19.016;2022-12-07T16:52:22;99771.25;;;1.75;100.00
64683;BME280;51107;47.652;19.016;2022-12-07T16:55:14;99777.50;;;1.70;100.00
64683;BME280;51107;47.652;19.016;2022-12-07T16:58:19;99786.59;;;1.62;100.00
64683;BME280;51107;47.652;19.016;2022-12-07T17:01:22;99773.88;;;1.60;100.00
64683;BME280;51107;47.652;19.016;2022-12-07T17:04:27;99789.09;;;1.49;100.00
64683;BME280;51107;47.652;19.016;2022-12-07T17:07:31;99785.66;;;1.19;100.00
64683;BME280;51107;47.652;19.016;2022-12-07T17:10:23;99787.31;;;1.06;100.00
64683;BME280;51107;47.652;19.016;2022-12-07T17:13:28;99789.78;;;1.08;100.00
64683;BME280;51107;47.652;19.016;2022-12-07T17:16:42;99776.12;;;1.07;100.00
64683;BME280;51107;47.652;19.016;2022-12-07T17:19:51;99778.31;;;0.99;100.00
64683;BME280;51107;47.652;19.016;2022-12-07T17:22:50;99790.88;;;1.04;100.00
64683;BME280;51107;47.652;19.016;2022-12-07T17:25:54;99774.94;;;1.13;100.00
64683;BME280;51107;47.652;19.016;2022-12-07T17:29:06;99778.72;;;1.22;100.00
64683;BME280;51107;47.652;19.016;2022-12-07T17:32:17;99777.88;;;1.21;100.00
64683;BME280;51107;47.652;19.016;2022-12-07T17:35:13;99792.28;;;1.24;100.00
64683;BME280;51107;47.652;19.016;2022-12-07T17:38:06;99794.31;;;1.33;100.00
64683;BME280;51107;47.652;19.016;2022-12-07T17:41:18;99797.06;;;1.30;100.00
64683;BME280;51107;47.652;19.016;2022-12-07T17:44:28;99799.16;;;1.38;100.00
64683;BME280;51107;47.652;19.016;2022-12-07T17:47:23;99809.41;;;1.38;99.80
64683;BME280;51107;47.652;19.016;2022-12-07T17:50:26;99805.28;;;1.35;99.20
64683;BME280;51107;47.652;19.016;2022-12-07T17:53:39;99807.22;;;1.31;99.55
64683;BME280;51107;47.652;19.016;2022-12-07T17:56:44;99810.81;;;1.29;100.00
64683;BME280;51107;47.652;19.016;2022-12-07T17:59:49;99801.91;;;1.20;99.59
64683;BME280;51107;47.652;19.016;2022-12-07T18:02:49;99812.94;;;0.92;100.00
64683;BME280;51107;47.652;19.016;2022-12-07T18:06:01;99810.78;;;0.84;100.00
64683;BME280;51107;47.652;19.016;2022-12-07T18:09:05;99813.59;;;0.95;100.00
64683;BME280;51107;47.652;19.016;2022-12-07T18:12:10;99815.31;;;0.95;100.00
64683;BME280;51107;47.652;19.016;2022-12-07T18:15:21;99809.03;;;1.15;98.41
64683;BME280;51107;47.652;19.016;2022-12-07T18:18:12;99808.13;;;1.30;96.90
64683;BME280;51107;47.652;19.016;2022-12-07T18:21:22;99808.31;;;1.42;96.99
64683;BME280;51107;47.652;19.016;2022-12-07T18:24:15;99802.81;;;1.33;98.93
64683;BME280;51107;47.652;19.016;2022-12-07T18:27:19;99806.31;;;1.32;99.71
64683;BME280;51107;47.652;19.016;2022-12-07T18:30:11;99810.63;;;1.32;99.50
64683;BME280;51107;47.652;19.016;2022-12-07T18:33:20;99813.84;;;1.50;98.27
64683;BME280;51107;47.652;19.016;2022-12-07T18:36:13;99822.91;;;1.56;97.71
64683;BME280;51107;47.652;19.016;2022-12-07T18:39:20;99811.00;;;1.55;98.45
64683;BME280;51107;47.652;19.016;2022-12-07T18:42:17;99818.25;;;1.48;98.54
64683;BME280;51107;47.652;19.016;2022-12-07T18:45:26;99818.50;;;1.43;99.49
64683;BME280;51107;47.652;19.016;2022-12-07T18:48:19;99817.03;;;1.39;99.96
64683;BME280;51107;47.652;19.016;2022-12-07T18:51:26;99809.41;;;1.38;100.00
64683;BME280;51107;47.652;19.016;2022-12-07T18:54:29;99817.22;;;1.36;100.00
64683;BME280;51107;47.652;19.016;2022-12-07T18:57:39;99808.16;;;1.45;100.00
64683;BME280;51107;47.652;19.016;2022-12-07T19:00:54;99824.66;;;1.41;100.00
64683;BME280;51107;47.652;19.016;2022-12-07T19:04:04;99816.03;;;1.42;100.00
64683;BME280;51107;47.652;19.016;2022-12-07T19:06:56;99827.69;;;1.33;100.00
64683;BME280;51107;47.652;19.016;2022-12-07T19:10:04;99831.44;;;1.27;100.00
64683;BME280;51107;47.652;19.016;2022-12-07T19:13:11;99830.88;;;1.22;100.00
64683;BME280;51107;47.652;19.016;2022-12-07T19:16:08;99826.91;;;1.02;100.00
64683;BME280;51107;47.652;19.016;2022-12-07T19:19:12;99832.19;;;0.68;100.00
64683;BME280;51107;47.652;19.016;2022-12-07T19:22:21;99830.47;;;0.37;100.00
64683;BME280;51107;47.652;19.016;2022-12-07T19:25:25;99821.91;;;0.22;100.00
64683;BME280;51107;47.652;19.016;2022-12-07T19:28:15;99829.75;;;0.19;100.00
64683;BME280;51107;47.652;19.016;2022-12-07T19:31:10;99833.37;;;0.15;100.00
64683;BME280;51107;47.652;19.016;2022-12-07T19:34:37;99837.84;;;0.27;100.00
64683;BME280;51107;47.652;19.016;2022-12-07T19:37:35;99826.94;;;0.40;100.00
64683;BME280;51107;47.652;19.016;2022-12-07T19:40:45;99823.53;;;0.55;100.00
64683;BME280;51107;47.652;19.016;2022-12-07T19:43:50;99821.44;;;0.62;100.00
64683;BME280;51107;47.652;19.016;2022-12-07T19:46:55;99824.50;;;0.68;100.00
64683;BME280;51107;47.652;19.016;2022-12-07T19:49:50;99815.31;;;0.64;100.00
64683;BME280;51107;47.652;19.016;2022-12-07T19:52:54;99818.87;;;0.62;100.00
64683;BME280;51107;47.652;19.016;2022-12-07T19:55:45;99815.31;;;0.64;100.00
64683;BME280;51107;47.652;19.016;2022-12-07T19:58:50;99825.66;;;0.63;100.00
64683;BME280;51107;47.652;19.016;2022-12-07T20:01:42;99822.53;;;0.58;100.00
64683;BME280;51107;47.652;19.016;2022-12-07T20:04:53;99817.16;;;0.62;100.00
64683;BME280;51107;47.652;19.016;2022-12-07T20:07:56;99826.25;;;0.52;100.00
64683;BME280;51107;47.652;19.016;2022-12-07T20:11:07;99827.44;;;0.30;100.00
64683;BME280;51107;47.652;19.016;2022-12-07T20:14:26;99835.97;;;0.47;100.00
64683;BME280;51107;47.652;19.016;2022-12-07T20:17:36;99836.00;;;0.61;100.00
64683;BME280;51107;47.652;19.016;2022-12-07T20:20:35;99839.81;;;0.54;100.00
64683;BME280;51107;47.652;19.016;2022-12-07T20:23:40;99831.16;;;0.41;100.00
64683;BME280;51107;47.652;19.016;2022-12-07T20:26:52;99834.78;;;0.53;100.00
64683;BME280;51107;47.652;19.016;2022-12-07T20:29:45;99839.16;;;0.66;98.77
64683;BME280;51107;47.652;19.016;2022-12-07T20:33:04;99840.87;;;0.66;99.31
64683;BME280;51107;47.652;19.016;2022-12-07T20:36:03;99839.56;;;0.89;97.17
64683;BME280;51107;47.652;19.016;2022-12-07T20:39:07;99838.66;;;0.90;96.99
64683;BME280;51107;47.652;19.016;2022-12-07T20:41:58;99847.53;;;0.84;99.01